sensor_id;sensor_type;location;lat;lon;timestamp;pressure;altitude;pressure_sealevel;temperature;humidity
6198;BME280;3132;42.622;23.328;2023-05-15T00:00:00;92820.88;;;10.62;100.00
6198;BME280;3132;42.622;23.328;2023-05-15T00:02:25;92799.50;;;10.55;100.00
6198;BME280;3132;42.622;23.328;2023-05-15T00:04:52;92796.56;;;10.67;100.00
6198;BME280;3132;42.622;23.328;2023-05-15T00:07:17;92784.13;;;10.54;100.00
6198;BME280;3132;42.622;23.328;2023-05-15T00:09:43;92771.00;;;10.64;100.00
6198;BME280;3132;42.622;23.328;2023-05-15T00:12:08;92740.09;;;10.71;100.00
6198;BME280;3132;42.622;23.328;2023-05-15T00:14:34;92746.97;;;10.62;100.00
6198;BME280;3132;42.622;23.328;2023-05-15T00:16:59;92768.56;;;10.72;100.00
6198;BME280;3132;42.622;23.328;2023-05-15T00:19:24;92771.84;;;10.54;100.00
6198;BME280;3132;42.622;23.328;2023-05-15T00:21:50;92803.47;;;10.04;100.00
6198;BME280;3132;42.622;23.328;2023-05-15T00:24:16;92811.41;;;9.89;100.00
6198;BME280;3132;42.622;23.328;2023-05-15T00:26:41;92824.66;;;9.98;100.00
6198;BME280;3132;42.622;23.328;2023-05-15T00:29:07;92800.13;;;9.99;100.00
6198;BME280;3132;42.622;23.328;2023-05-15T00:31:32;92780.78;;;10.05;100.00
6198;BME280;3132;42.622;23.328;2023-05-15T00:33:58;92832.19;;;10.09;100.00
6198;BME280;3132;42.622;23.328;2023-05-15T00:36:24;92830.56;;;10.18;100.00
6198;BME280;3132;42.622;23.328;2023-05-15T00:38:50;92829.44;;;10.29;100.00
6198;BME280;3132;42.622;23.328;2023-05-15T00:41:17;92825.75;;;10.35;100.00
6198;BME280;3132;42.622;23.328;2023-05-15T00:43:43;92812.22;;;10.33;100.00
6198;BME280;3132;42.622;23.328;2023-05-15T00:46:11;92824.19;;;10.39;100.00
6198;BME280;3132;42.622;23.328;2023-05-15T00:48:37;92817.19;;;10.30;100.00
6198;BME280;3132;42.622;23.328;2023-05-15T00:51:04;92813.91;;;10.48;100.00
6198;BME280;3132;42.622;23.328;2023-05-15T00:53:29;92811.63;;;10.41;100.00
6198;BME280;3132;42.622;23.328;2023-05-15T00:55:56;92815.97;;;10.17;100.00
6198;BME280;3132;42.622;23.328;2023-05-15T00:58:23;92820.38;;;10.22;100.00
6198;BME280;3132;42.622;23.328;2023-05-15T01:00:49;92809.66;;;10.23;100.00
6198;BME280;3132;42.622;23.328;2023-05-15T01:03:15;92795.47;;;10.39;100.00
6198;BME280;3132;42.622;23.328;2023-05-15T01:05:41;92816.91;;;10.31;100.00
6198;BME280;3132;42.622;23.328;2023-05-15T01:08:17;92819.78;;;10.35;100.00
6198;BME280;3132;42.622;23.328;2023-05-15T01:10:44;92814.41;;;10.16;100.00
6198;BME280;3132;42.622;23.328;2023-05-15T01:13:13;92815.81;;;9.89;100.00
6198;BME280;3132;42.622;23.328;2023-05-15T01:15:39;92821.47;;;10.06;100.00
6198;BME280;3132;42.622;23.328;2023-05-15T01:18:05;92812.25;;;10.28;100.00
6198;BME280;3132;42.622;23.328;2023-05-15T01:29:04;92793.31;;;10.08;100.00
6198;BME280;3132;42.622;23.328;2023-05-15T01:31:33;92779.00;;;10.00;100.00
6198;BME280;3132;42.622;23.328;2023-05-15T01:34:02;92786.81;;;10.05;100.00
6198;BME280;3132;42.622;23.328;2023-05-15T01:36:36;92775.59;;;10.00;100.00
6198;BME280;3132;42.622;23.328;2023-05-15T01:39:02;92795.94;;;10.08;100.00
6198;BME280;3132;42.622;23.328;2023-05-15T01:44:06;92778.34;;;9.79;100.00
6198;BME280;3132;42.622;23.328;2023-05-15T01:46:38;92781.72;;;9.85;100.00
6198;BME280;3132;42.622;23.328;2023-05-15T01:49:08;92772.88;;;9.76;100.00
6198;BME280;3132;42.622;23.328;2023-05-15T01:51:37;92777.53;;;9.84;100.00
6198;BME280;3132;42.622;23.328;2023-05-15T01:54:05;92767.66;;;9.76;100.00
6198;BME280;3132;42.622;23.328;2023-05-15T01:56:31;92746.38;;;9.59;100.00
6198;BME280;3132;42.622;23.328;2023-05-15T01:58:57;92766.72;;;9.57;100.00
6198;BME280;3132;42.622;23.328;2023-05-15T02:01:25;92742.47;;;9.61;100.00
6198;BME280;3132;42.622;23.328;2023-05-15T02:03:52;92759.84;;;9.22;100.00
6198;BME280;3132;42.622;23.328;2023-05-15T02:06:18;92777.19;;;9.52;100.00
6198;BME280;3132;42.622;23.328;2023-05-15T02:08:45;92779.44;;;9.63;100.00
6198;BME280;3132;42.622;23.328;2023-05-15T02:11:12;92792.16;;;9.80;100.00
6198;BME280;3132;42.622;23.328;2023-05-15T02:13:39;92767.63;;;9.86;100.00
6198;BME280;3132;42.622;23.328;2023-05-15T02:16:06;92781.19;;;9.83;100.00
6198;BME280;3132;42.622;23.328;2023-05-15T02:18:31;92788.16;;;9.98;100.00
6198;BME280;3132;42.622;23.328;2023-05-15T02:20:57;92780.41;;;9.82;100.00
6198;BME280;3132;42.622;23.328;2023-05-15T02:23:25;92776.81;;;9.73;100.00
6198;BME280;3132;42.622;23.328;2023-05-15T02:26:17;92777.03;;;9.82;100.00
6198;BME280;3132;42.622;23.328;2023-05-15T02:34:51;92755.72;;;9.65;100.00
6198;BME280;3132;42.622;23.328;2023-05-15T02:37:24;92758.53;;;9.78;100.00
6198;BME280;3132;42.622;23.328;2023-05-15T02:39:52;92737.41;;;9.80;100.00
6198;BME280;3132;42.622;23.328;2023-05-15T02:42:19;92736.44;;;9.66;100.00
6198;BME280;3132;42.622;23.328;2023-05-15T02:44:45;92757.84;;;9.63;100.00
6198;BME280;3132;42.622;23.328;2023-05-15T02:47:13;92770.34;;;9.66;100.00
6198;BME280;3132;42.622;23.328;2023-05-15T02:49:39;92758.16;;;9.46;100.00
6198;BME280;3132;42.622;23.328;2023-05-15T02:52:05;92763.63;;;9.45;100.00
6198;BME280;3132;42.622;23.328;2023-05-15T02:54:30;92726.72;;;9.28;100.00
6198;BME280;3132;42.622;23.328;2023-05-15T02:56:56;92743.28;;;9.57;100.00
6198;BME280;3132;42.622;23.328;2023-05-15T02:59:21;92735.41;;;9.62;100.00
6198;BME280;3132;42.622;23.328;2023-05-15T03:01:47;92755.06;;;9.39;100.00
6198;BME280;3132;42.622;23.328;2023-05-15T03:04:13;92750.56;;;9.60;100.00
6198;BME280;3132;42.622;23.328;2023-05-15T03:06:39;92746.63;;;9.62;100.00
6198;BME280;3132;42.622;23.328;2023-05-15T03:09:04;92728.09;;;9.69;100.00
6198;BME280;3132;42.622;23.328;2023-05-15T03:11:30;92754.25;;;9.49;100.00
6198;BME280;3132;42.622;23.328;2023-05-15T03:13:55;92678.47;;;8.87;100.00
6198;BME280;3132;42.622;23.328;2023-05-15T03:16:20;92761.56;;;9.42;100.00
6198;BME280;3132;42.622;23.328;2023-05-15T03:18:46;92759.38;;;9.64;100.00
6198;BME280;3132;42.622;23.328;2023-05-15T03:21:12;92770.75;;;9.83;100.00
6198;BME280;3132;42.622;23.328;2023-05-15T03:23:37;92775.00;;;9.74;100.00
6198;BME280;3132;42.622;23.328;2023-05-15T03:26:03;92758.72;;;9.87;100.00
6198;BME280;3132;42.622;23.328;2023-05-15T03:28:28;92768.25;;;9.68;100.00
6198;BME280;3132;42.622;23.328;2023-05-15T03:30:53;92755.22;;;9.63;100.00
6198;BME280;3132;42.622;23.328;2023-05-15T03:33:19;92757.44;;;9.85;100.00
6198;BME280;3132;42.622;23.328;2023-05-15T03:35:44;92753.50;;;9.92;100.00
6198;BME280;3132;42.622;23.328;2023-05-15T03:38:11;92750.22;;;9.71;100.00
6198;BME280;3132;42.622;23.328;2023-05-15T03:40:37;92748.81;;;9.89;100.00
6198;BME280;3132;42.622;23.328;2023-05-15T03:43:03;92733.59;;;10.01;100.00
6198;BME280;3132;42.622;23.328;2023-05-15T03:45:29;92739.44;;;9.88;100.00
6198;BME280;3132;42.622;23.328;2023-05-15T03:47:54;92735.00;;;9.89;100.00
6198;BME280;3132;42.622;23.328;2023-05-15T03:50:19;92740.09;;;10.09;100.00
6198;BME280;3132;42.622;23.328;2023-05-15T03:52:45;92750.16;;;10.25;100.00
6198;BME280;3132;42.622;23.328;2023-05-15T03:55:11;92751.44;;;10.28;100.00
6198;BME280;3132;42.622;23.328;2023-05-15T03:57:36;92745.25;;;10.19;100.00
6198;BME280;3132;42.622;23.328;2023-05-15T04:00:02;92746.34;;;10.13;100.00
6198;BME280;3132;42.622;23.328;2023-05-15T04:02:33;92763.13;;;10.35;100.00
6198;BME280;3132;42.622;23.328;2023-05-15T04:04:59;92743.91;;;10.21;100.00
6198;BME280;3132;42.622;23.328;2023-05-15T04:07:24;92762.09;;;10.36;100.00
6198;BME280;3132;42.622;23.328;2023-05-15T04:09:49;92747.41;;;10.45;100.00
6198;BME280;3132;42.622;23.328;2023-05-15T04:12:15;92749.22;;;10.45;100.00
6198;BME280;3132;42.622;23.328;2023-05-15T04:14:40;92756.19;;;10.54;100.00
6198;BME280;3132;42.622;23.328;2023-05-15T04:17:06;92774.94;;;10.61;100.00
6198;BME280;3132;42.622;23.328;2023-05-15T04:19:31;92776.69;;;10.37;100.00
6198;BME280;3132;42.622;23.328;2023-05-15T04:21:57;92775.66;;;10.67;100.00
6198;BME280;3132;42.622;23.328;2023-05-15T04:24:22;92776.75;;;10.61;100.00
6198;BME280;3132;42.622;23.328;2023-05-15T04:26:47;92775.97;;;10.60;100.00
6198;BME280;3132;42.622;23.328;2023-05-15T04:29:13;92768.03;;;10.75;100.00
6198;BME280;3132;42.622;23.328;2023-05-15T04:31:38;92779.91;;;10.86;100.00
6198;BME280;3132;42.622;23.328;2023-05-15T04:34:04;92769.94;;;10.93;100.00
6198;BME280;3132;42.622;23.328;2023-05-15T04:36:29;92771.03;;;10.87;100.00
6198;BME280;3132;42.622;23.328;2023-05-15T04:38:55;92773.94;;;10.86;100.00
6198;BME280;3132;42.622;23.328;2023-05-15T04:41:21;92764.28;;;11.10;100.00
6198;BME280;3132;42.622;23.328;2023-05-15T04:43:46;92744.75;;;11.02;100.00
6198;BME280;3132;42.622;23.328;2023-05-15T04:46:12;92742.38;;;11.29;100.00
6198;BME280;3132;42.622;23.328;2023-05-15T04:48:37;92747.66;;;11.24;100.00
6198;BME280;3132;42.622;23.328;2023-05-15T04:51:02;92739.03;;;11.24;100.00
6198;BME280;3132;42.622;23.328;2023-05-15T04:53:28;92734.41;;;11.16;100.00
6198;BME280;3132;42.622;23.328;2023-05-15T04:55:53;92744.06;;;11.20;100.00
6198;BME280;3132;42.622;23.328;2023-05-15T04:58:19;92751.94;;;11.15;100.00
6198;BME280;3132;42.622;23.328;2023-05-15T05:00:44;92754.50;;;11.20;100.00
6198;BME280;3132;42.622;23.328;2023-05-15T05:03:09;92752.66;;;11.21;100.00
6198;BME280;3132;42.622;23.328;2023-05-15T05:05:35;92747.38;;;11.26;100.00
6198;BME280;3132;42.622;23.328;2023-05-15T05:08:01;92752.19;;;11.19;100.00
6198;BME280;3132;42.622;23.328;2023-05-15T05:10:26;92733.94;;;11.14;100.00
6198;BME280;3132;42.622;23.328;2023-05-15T05:12:51;92726.28;;;11.17;100.00
6198;BME280;3132;42.622;23.328;2023-05-15T05:15:17;92732.22;;;11.28;100.00
6198;BME280;3132;42.622;23.328;2023-05-15T05:17:42;92730.84;;;11.30;100.00
6198;BME280;3132;42.622;23.328;2023-05-15T05:20:08;92736.03;;;11.35;100.00
6198;BME280;3132;42.622;23.328;2023-05-15T05:22:34;92729.47;;;11.57;100.00
6198;BME280;3132;42.622;23.328;2023-05-15T05:24:59;92728.63;;;11.66;100.00
6198;BME280;3132;42.622;23.328;2023-05-15T05:27:25;92735.84;;;11.51;100.00
6198;BME280;3132;42.622;23.328;2023-05-15T05:29:51;92732.75;;;11.01;100.00
6198;BME280;3132;42.622;23.328;2023-05-15T05:32:18;92729.34;;;10.77;100.00
6198;BME280;3132;42.622;23.328;2023-05-15T05:34:43;92734.25;;;11.07;100.00
6198;BME280;3132;42.622;23.328;2023-05-15T05:37:09;92742.75;;;10.94;100.00
6198;BME280;3132;42.622;23.328;2023-05-15T05:39:34;92742.63;;;11.33;100.00
6198;BME280;3132;42.622;23.328;2023-05-15T05:42:00;92752.47;;;11.60;100.00
6198;BME280;3132;42.622;23.328;2023-05-15T05:44:25;92744.31;;;11.61;100.00
6198;BME280;3132;42.622;23.328;2023-05-15T05:46:51;92744.13;;;11.81;100.00
6198;BME280;3132;42.622;23.328;2023-05-15T05:49:16;92747.50;;;12.19;100.00
6198;BME280;3132;42.622;23.328;2023-05-15T05:51:44;92739.59;;;11.45;100.00
6198;BME280;3132;42.622;23.328;2023-05-15T05:54:10;92740.09;;;11.89;100.00
6198;BME280;3132;42.622;23.328;2023-05-15T05:56:35;92733.91;;;12.35;100.00
6198;BME280;3132;42.622;23.328;2023-05-15T05:59:01;92740.84;;;11.71;100.00
6198;BME280;3132;42.622;23.328;2023-05-15T06:01:26;92729.75;;;11.55;100.00
6198;BME280;3132;42.622;23.328;2023-05-15T06:03:52;92745.44;;;12.16;100.00
6198;BME280;3132;42.622;23.328;2023-05-15T06:06:17;92747.50;;;11.82;100.00
6198;BME280;3132;42.622;23.328;2023-05-15T06:08:43;92751.94;;;12.37;100.00
6198;BME280;3132;42.622;23.328;2023-05-15T06:11:08;92751.19;;;11.81;100.00
6198;BME280;3132;42.622;23.328;2023-05-15T06:13:33;92758.31;;;12.31;100.00
6198;BME280;3132;42.622;23.328;2023-05-15T06:15:59;92755.56;;;11.85;100.00
6198;BME280;3132;42.622;23.328;2023-05-15T06:18:25;92755.28;;;12.05;100.00
6198;BME280;3132;42.622;23.328;2023-05-15T06:20:50;92753.22;;;13.04;100.00
6198;BME280;3132;42.622;23.328;2023-05-15T06:23:17;92755.56;;;13.59;100.00
6198;BME280;3132;42.622;23.328;2023-05-15T06:25:42;92744.34;;;13.00;100.00
6198;BME280;3132;42.622;23.328;2023-05-15T06:28:08;92737.59;;;13.26;100.00
6198;BME280;3132;42.622;23.328;2023-05-15T06:30:33;92757.91;;;13.47;100.00
6198;BME280;3132;42.622;23.328;2023-05-15T06:32:59;92751.34;;;13.85;100.00
6198;BME280;3132;42.622;23.328;2023-05-15T06:35:24;92747.13;;;13.98;100.00
6198;BME280;3132;42.622;23.328;2023-05-15T06:37:50;92747.47;;;14.18;100.00
6198;BME280;3132;42.622;23.328;2023-05-15T06:40:17;92758.69;;;14.46;100.00
6198;BME280;3132;42.622;23.328;2023-05-15T06:42:42;92751.09;;;14.09;100.00
6198;BME280;3132;42.622;23.328;2023-05-15T06:45:08;92759.47;;;14.11;100.00
6198;BME280;3132;42.622;23.328;2023-05-15T06:47:34;92772.41;;;14.07;100.00
6198;BME280;3132;42.622;23.328;2023-05-15T06:49:59;92775.66;;;14.62;100.00
6198;BME280;3132;42.622;23.328;2023-05-15T06:52:25;92764.63;;;14.52;100.00
6198;BME280;3132;42.622;23.328;2023-05-15T06:54:50;92779.41;;;14.47;100.00
6198;BME280;3132;42.622;23.328;2023-05-15T06:57:17;92764.97;;;14.36;100.00
6198;BME280;3132;42.622;23.328;2023-05-15T06:59:42;92775.31;;;14.06;100.00
6198;BME280;3132;42.622;23.328;2023-05-15T07:02:07;92761.88;;;14.21;100.00
6198;BME280;3132;42.622;23.328;2023-05-15T07:04:33;92780.31;;;14.43;100.00
6198;BME280;3132;42.622;23.328;2023-05-15T07:06:58;92788.00;;;14.62;100.00
6198;BME280;3132;42.622;23.328;2023-05-15T07:09:24;92785.22;;;14.58;100.00
6198;BME280;3132;42.622;23.328;2023-05-15T07:11:49;92769.16;;;14.82;100.00
6198;BME280;3132;42.622;23.328;2023-05-15T07:14:15;92762.56;;;14.93;100.00
6198;BME280;3132;42.622;23.328;2023-05-15T07:16:40;92779.41;;;14.92;100.00
6198;BME280;3132;42.622;23.328;2023-05-15T07:19:07;92764.53;;;14.87;99.75
6198;BME280;3132;42.622;23.328;2023-05-15T07:21:33;92775.97;;;14.83;100.00
6198;BME280;3132;42.622;23.328;2023-05-15T07:23:58;92780.84;;;14.76;100.00
6198;BME280;3132;42.622;23.328;2023-05-15T07:26:24;92772.03;;;14.72;100.00
6198;BME280;3132;42.622;23.328;2023-05-15T07:28:50;92776.44;;;14.63;100.00
6198;BME280;3132;42.622;23.328;2023-05-15T07:31:15;92775.00;;;14.34;100.00
6198;BME280;3132;42.622;23.328;2023-05-15T07:33:41;92794.34;;;14.61;99.84
6198;BME280;3132;42.622;23.328;2023-05-15T07:36:06;92783.50;;;14.54;99.86
6198;BME280;3132;42.622;23.328;2023-05-15T07:38:32;92771.72;;;14.51;99.90
6198;BME280;3132;42.622;23.328;2023-05-15T07:40:57;92773.91;;;14.35;100.00
6198;BME280;3132;42.622;23.328;2023-05-15T07:43:22;92771.44;;;14.03;100.00
6198;BME280;3132;42.622;23.328;2023-05-15T07:45:48;92769.25;;;13.83;100.00
6198;BME280;3132;42.622;23.328;2023-05-15T07:48:18;92761.63;;;13.95;100.00
6198;BME280;3132;42.622;23.328;2023-05-15T07:50:45;92777.00;;;13.88;100.00
6198;BME280;3132;42.622;23.328;2023-05-15T07:53:11;92780.44;;;13.75;100.00
6198;BME280;3132;42.622;23.328;2023-05-15T07:55:37;92774.50;;;13.70;100.00
6198;BME280;3132;42.622;23.328;2023-05-15T07:58:02;92792.47;;;13.76;100.00
6198;BME280;3132;42.622;23.328;2023-05-15T08:00:28;92783.94;;;13.71;100.00
6198;BME280;3132;42.622;23.328;2023-05-15T08:02:53;92789.47;;;13.83;100.00
6198;BME280;3132;42.622;23.328;2023-05-15T08:05:18;92795.09;;;13.76;100.00
6198;BME280;3132;42.622;23.328;2023-05-15T08:07:44;92798.19;;;13.92;100.00
6198;BME280;3132;42.622;23.328;2023-05-15T08:10:09;92800.53;;;13.80;100.00
6198;BME280;3132;42.622;23.328;2023-05-15T08:12:35;92805.28;;;13.78;100.00
6198;BME280;3132;42.622;23.328;2023-05-15T08:15:01;92795.59;;;13.78;100.00
6198;BME280;3132;42.622;23.328;2023-05-15T08:17:26;92805.50;;;13.81;100.00
6198;BME280;3132;42.622;23.328;2023-05-15T08:19:52;92793.66;;;13.57;100.00
6198;BME280;3132;42.622;23.328;2023-05-15T08:22:17;92794.34;;;13.76;100.00
6198;BME280;3132;42.622;23.328;2023-05-15T08:24:43;92796.09;;;13.80;100.00
6198;BME280;3132;42.622;23.328;2023-05-15T08:27:09;92795.28;;;13.80;100.00
6198;BME280;3132;42.622;23.328;2023-05-15T08:29:35;92782.38;;;13.56;100.00
6198;BME280;3132;42.622;23.328;2023-05-15T08:32:01;92785.97;;;13.74;100.00
6198;BME280;3132;42.622;23.328;2023-05-15T08:34:27;92778.00;;;13.65;100.00
6198;BME280;3132;42.622;23.328;2023-05-15T08:36:52;92792.25;;;14.00;100.00
6198;BME280;3132;42.622;23.328;2023-05-15T08:39:17;92785.16;;;13.87;100.00
6198;BME280;3132;42.622;23.328;2023-05-15T08:42:02;92784.31;;;13.78;100.00
6198;BME280;3132;42.622;23.328;2023-05-15T08:44:29;92786.13;;;14.04;100.00
6198;BME280;3132;42.622;23.328;2023-05-15T08:46:56;92788.28;;;13.89;100.00
6198;BME280;3132;42.622;23.328;2023-05-15T08:51:54;92786.66;;;13.66;100.00
6198;BME280;3132;42.622;23.328;2023-05-15T08:54:20;92774.78;;;13.28;100.00
6198;BME280;3132;42.622;23.328;2023-05-15T08:56:46;92783.06;;;13.48;100.00
6198;BME280;3132;42.622;23.328;2023-05-15T08:59:11;92782.28;;;13.48;100.00
6198;BME280;3132;42.622;23.328;2023-05-15T09:01:37;92778.78;;;13.25;100.00
6198;BME280;3132;42.622;23.328;2023-05-15T09:04:03;92774.69;;;13.33;100.00
6198;BME280;3132;42.622;23.328;2023-05-15T09:06:29;92763.44;;;13.32;100.00
6198;BME280;3132;42.622;23.328;2023-05-15T09:08:55;92777.81;;;13.48;100.00
6198;BME280;3132;42.622;23.328;2023-05-15T09:11:25;92779.75;;;13.56;100.00
6198;BME280;3132;42.622;23.328;2023-05-15T09:13:51;92780.44;;;13.75;100.00
6198;BME280;3132;42.622;23.328;2023-05-15T09:16:17;92768.38;;;13.74;100.00
6198;BME280;3132;42.622;23.328;2023-05-15T09:18:45;92753.44;;;14.24;100.00
6198;BME280;3132;42.622;23.328;2023-05-15T09:21:23;92758.56;;;14.29;100.00
6198;BME280;3132;42.622;23.328;2023-05-15T09:23:53;92757.75;;;13.93;100.00
6198;BME280;3132;42.622;23.328;2023-05-15T09:26:19;92761.03;;;14.70;100.00
6198;BME280;3132;42.622;23.328;2023-05-15T09:28:47;92742.38;;;15.02;100.00
6198;BME280;3132;42.622;23.328;2023-05-15T09:31:13;92753.66;;;15.33;100.00
6198;BME280;3132;42.622;23.328;2023-05-15T09:33:39;92751.13;;;15.50;99.78
6198;BME280;3132;42.622;23.328;2023-05-15T09:36:06;92740.91;;;15.57;97.63
6198;BME280;3132;42.622;23.328;2023-05-15T09:38:42;92751.47;;;15.65;98.10
6198;BME280;3132;42.622;23.328;2023-05-15T09:41:11;92738.34;;;15.91;96.58
6198;BME280;3132;42.622;23.328;2023-05-15T09:43:37;92735.59;;;15.96;96.12
6198;BME280;3132;42.622;23.328;2023-05-15T09:46:04;92728.44;;;15.88;96.07
6198;BME280;3132;42.622;23.328;2023-05-15T09:48:31;92719.63;;;15.92;95.51
6198;BME280;3132;42.622;23.328;2023-05-15T09:50:56;92708.47;;;15.95;96.02
6198;BME280;3132;42.622;23.328;2023-05-15T09:53:22;92711.41;;;16.11;97.16
6198;BME280;3132;42.622;23.328;2023-05-15T09:55:48;92717.03;;;16.35;95.57
6198;BME280;3132;42.622;23.328;2023-05-15T09:58:16;92713.91;;;16.42;93.76
6198;BME280;3132;42.622;23.328;2023-05-15T10:00:44;92708.66;;;16.16;92.70
6198;BME280;3132;42.622;23.328;2023-05-15T10:03:10;92726.59;;;15.97;95.39
6198;BME280;3132;42.622;23.328;2023-05-15T10:05:37;92704.59;;;15.76;94.17
6198;BME280;3132;42.622;23.328;2023-05-15T10:08:02;92699.72;;;15.52;96.32
6198;BME280;3132;42.622;23.328;2023-05-15T10:10:29;92715.50;;;15.52;98.72
6198;BME280;3132;42.622;23.328;2023-05-15T10:12:56;92717.88;;;15.62;99.36
6198;BME280;3132;42.622;23.328;2023-05-15T10:15:24;92713.53;;;15.58;96.70
6198;BME280;3132;42.622;23.328;2023-05-15T10:17:51;92713.81;;;15.48;100.00
6198;BME280;3132;42.622;23.328;2023-05-15T10:20:19;92702.69;;;15.68;99.32
6198;BME280;3132;42.622;23.328;2023-05-15T10:22:46;92721.94;;;15.94;95.34
6198;BME280;3132;42.622;23.328;2023-05-15T10:27:47;92728.66;;;15.44;100.00
6198;BME280;3132;42.622;23.328;2023-05-15T10:30:14;92722.53;;;15.26;100.00
6198;BME280;3132;42.622;23.328;2023-05-15T10:32:43;92730.59;;;15.30;100.00
6198;BME280;3132;42.622;23.328;2023-05-15T10:35:09;92735.25;;;14.80;100.00
6198;BME280;3132;42.622;23.328;2023-05-15T10:37:37;92736.84;;;15.12;100.00
6198;BME280;3132;42.622;23.328;2023-05-15T10:40:05;92749.25;;;15.50;100.00
6198;BME280;3132;42.622;23.328;2023-05-15T10:42:32;92741.69;;;15.57;99.41
6198;BME280;3132;42.622;23.328;2023-05-15T10:44:58;92723.41;;;15.44;99.43
6198;BME280;3132;42.622;23.328;2023-05-15T10:47:28;92732.97;;;15.40;99.44
6198;BME280;3132;42.622;23.328;2023-05-15T10:49:54;92750.53;;;15.31;99.96
6198;BME280;3132;42.622;23.328;2023-05-15T10:52:19;92750.81;;;14.90;100.00
6198;BME280;3132;42.622;23.328;2023-05-15T10:54:45;92751.59;;;14.91;100.00
6198;BME280;3132;42.622;23.328;2023-05-15T10:57:10;92756.25;;;14.72;100.00
6198;BME280;3132;42.622;23.328;2023-05-15T10:59:36;92753.31;;;14.51;100.00
6198;BME280;3132;42.622;23.328;2023-05-15T11:02:23;92746.44;;;14.86;100.00
6198;BME280;3132;42.622;23.328;2023-05-15T11:04:55;92741.50;;;14.84;100.00
6198;BME280;3132;42.622;23.328;2023-05-15T11:07:20;92743.50;;;14.57;100.00
6198;BME280;3132;42.622;23.328;2023-05-15T11:09:48;92736.72;;;14.86;100.00
6198;BME280;3132;42.622;23.328;2023-05-15T11:12:14;92733.00;;;14.87;100.00
6198;BME280;3132;42.622;23.328;2023-05-15T11:17:24;92740.72;;;15.14;100.00
6198;BME280;3132;42.622;23.328;2023-05-15T11:22:30;92722.59;;;14.52;100.00
6198;BME280;3132;42.622;23.328;2023-05-15T11:27:28;92734.88;;;14.65;100.00
6198;BME280;3132;42.622;23.328;2023-05-15T11:30:16;92742.69;;;15.09;100.00
6198;BME280;3132;42.622;23.328;2023-05-15T11:35:18;92733.50;;;15.59;99.21
6198;BME280;3132;42.622;23.328;2023-05-15T11:37:49;92740.03;;;15.70;97.28
6198;BME280;3132;42.622;23.328;2023-05-15T11:43:32;92727.41;;;16.06;94.37
6198;BME280;3132;42.622;23.328;2023-05-15T11:48:46;92705.56;;;16.23;94.52
6198;BME280;3132;42.622;23.328;2023-05-15T11:51:19;92716.56;;;16.25;97.16
6198;BME280;3132;42.622;23.328;2023-05-15T11:53:46;92719.94;;;16.76;91.41
6198;BME280;3132;42.622;23.328;2023-05-15T11:56:20;92713.75;;;16.81;90.80
6198;BME280;3132;42.622;23.328;2023-05-15T11:58:57;92711.75;;;17.24;87.93
6198;BME280;3132;42.622;23.328;2023-05-15T12:01:23;92710.50;;;17.21;87.03
6198;BME280;3132;42.622;23.328;2023-05-15T12:03:50;92710.63;;;17.33;86.64
6198;BME280;3132;42.622;23.328;2023-05-15T12:06:16;92707.38;;;17.36;86.12
6198;BME280;3132;42.622;23.328;2023-05-15T12:08:42;92704.59;;;17.33;86.41
6198;BME280;3132;42.622;23.328;2023-05-15T12:11:08;92705.28;;;17.04;84.48
6198;BME280;3132;42.622;23.328;2023-05-15T12:13:33;92701.81;;;16.58;87.24
6198;BME280;3132;42.622;23.328;2023-05-15T12:16:01;92699.19;;;16.24;88.27
6198;BME280;3132;42.622;23.328;2023-05-15T12:18:27;92697.81;;;16.26;88.08
6198;BME280;3132;42.622;23.328;2023-05-15T12:20:53;92711.13;;;16.13;89.67
6198;BME280;3132;42.622;23.328;2023-05-15T12:23:23;92706.00;;;16.16;91.89
6198;BME280;3132;42.622;23.328;2023-05-15T12:25:51;92697.19;;;16.21;92.60
6198;BME280;3132;42.622;23.328;2023-05-15T12:28:19;92677.19;;;16.45;91.33
6198;BME280;3132;42.622;23.328;2023-05-15T12:30:45;92659.53;;;16.54;92.59
6198;BME280;3132;42.622;23.328;2023-05-15T12:33:11;92667.72;;;16.70;92.09
6198;BME280;3132;42.622;23.328;2023-05-15T12:35:42;92633.44;;;16.61;90.01
6198;BME280;3132;42.622;23.328;2023-05-15T12:38:13;92643.16;;;16.86;90.13
6198;BME280;3132;42.622;23.328;2023-05-15T12:40:39;92644.38;;;17.26;88.09
6198;BME280;3132;42.622;23.328;2023-05-15T12:43:06;92644.38;;;17.26;86.90
6198;BME280;3132;42.622;23.328;2023-05-15T12:45:32;92631.13;;;17.06;87.92
6198;BME280;3132;42.622;23.328;2023-05-15T12:47:59;92638.34;;;17.26;84.55
6198;BME280;3132;42.622;23.328;2023-05-15T12:50:25;92617.00;;;17.10;84.25
6198;BME280;3132;42.622;23.328;2023-05-15T12:53:00;92624.44;;;17.08;85.30
6198;BME280;3132;42.622;23.328;2023-05-15T12:55:30;92619.56;;;16.90;85.69
6198;BME280;3132;42.622;23.328;2023-05-15T12:58:07;92646.38;;;17.29;83.42
6198;BME280;3132;42.622;23.328;2023-05-15T13:00:34;92638.94;;;17.60;81.11
6198;BME280;3132;42.622;23.328;2023-05-15T13:03:00;92650.66;;;17.42;83.52
6198;BME280;3132;42.622;23.328;2023-05-15T13:05:27;92651.69;;;17.58;82.56
6198;BME280;3132;42.622;23.328;2023-05-15T13:07:53;92620.22;;;17.74;82.27
6198;BME280;3132;42.622;23.328;2023-05-15T13:10:21;92649.59;;;17.73;79.50
6198;BME280;3132;42.622;23.328;2023-05-15T13:12:47;92647.38;;;17.75;81.03
6198;BME280;3132;42.622;23.328;2023-05-15T13:15:36;92621.63;;;17.72;82.88
6198;BME280;3132;42.622;23.328;2023-05-15T13:18:04;92631.69;;;17.78;79.85
6198;BME280;3132;42.622;23.328;2023-05-15T13:20:40;92627.94;;;18.00;80.82
6198;BME280;3132;42.622;23.328;2023-05-15T13:23:06;92617.59;;;17.74;79.02
6198;BME280;3132;42.622;23.328;2023-05-15T13:25:32;92607.31;;;18.14;79.40
6198;BME280;3132;42.622;23.328;2023-05-15T13:28:00;92616.31;;;18.33;79.37
6198;BME280;3132;42.622;23.328;2023-05-15T13:30:27;92614.66;;;18.29;78.71
6198;BME280;3132;42.622;23.328;2023-05-15T13:32:53;92622.03;;;18.56;79.24
6198;BME280;3132;42.622;23.328;2023-05-15T13:35:18;92627.94;;;18.41;78.63
6198;BME280;3132;42.622;23.328;2023-05-15T13:37:44;92647.63;;;18.64;76.95
6198;BME280;3132;42.622;23.328;2023-05-15T13:40:10;92638.63;;;18.77;79.14